createdAt,value
2022-08-05T00:01:36.260Z,38.70
2022-08-05T00:04:19.039Z,38.90
2022-08-05T00:06:47.108Z,39.00
2022-08-05T00:09:16.019Z,39.10
2022-08-05T00:11:48.268Z,39.10
2022-08-05T00:14:17.531Z,39.20
2022-08-05T00:16:52.699Z,39.40
2022-08-05T00:19:21.531Z,39.40
2022-08-05T00:21:49.738Z,39.40
2022-08-05T00:24:19.129Z,39.50
2022-08-05T00:26:53.272Z,39.60
2022-08-05T00:29:25.369Z,39.60
2022-08-05T00:32:12.480Z,39.90
2022-08-05T00:35:04.465Z,39.80
2022-08-05T00:37:50.542Z,39.90
2022-08-05T00:40:26.622Z,40.00
2022-08-05T00:43:00.323Z,40.00
2022-08-05T00:45:42.768Z,40.20
2022-08-05T00:48:31.262Z,40.20
2022-08-05T00:50:58.742Z,40.70
2022-08-05T00:54:00.058Z,40.40
2022-08-05T00:56:17.383Z,40.50
2022-08-05T00:58:49.870Z,40.60
2022-08-05T01:01:24.724Z,40.70
2022-08-05T01:04:04.077Z,40.80
2022-08-05T01:06:40.793Z,40.90
2022-08-05T01:09:10.480Z,41.00
2022-08-05T01:11:39.501Z,41.20
2022-08-05T01:14:17.994Z,41.30
2022-08-05T01:17:07.361Z,41.30
2022-08-05T01:20:00.862Z,41.30
2022-08-05T01:23:14.447Z,41.30
2022-08-05T01:26:26.985Z,41.80
2022-08-05T01:29:05.333Z,41.80
2022-08-05T01:31:44.761Z,41.40
2022-08-05T01:34:36.509Z,41.50
2022-08-05T01:37:25.108Z,42.00
2022-08-05T01:39:58.654Z,41.90
2022-08-05T01:42:29.619Z,41.70
2022-08-05T01:44:59.924Z,41.80
2022-08-05T01:47:39.442Z,41.80
2022-08-05T01:50:15.768Z,42.00
2022-08-05T01:52:50.170Z,42.00
2022-08-05T01:55:21.152Z,42.10
2022-08-05T01:58:13.190Z,42.30
2022-08-05T02:00:45.393Z,42.50
2022-08-05T02:03:31.764Z,42.60
2022-08-05T02:06:03.748Z,43.00
2022-08-05T02:08:57.985Z,42.80
2022-08-05T02:11:32.964Z,42.90
2022-08-05T02:14:16.958Z,43.20
2022-08-05T02:16:53.377Z,43.90
2022-08-05T02:19:36.435Z,43.70
2022-08-05T02:22:26.645Z,43.80
2022-08-05T02:25:04.003Z,43.80
2022-08-05T02:27:59.332Z,44.10
2022-08-05T02:30:30.816Z,44.30
2022-08-05T02:33:00.249Z,44.40
2022-08-05T02:35:33.217Z,44.40
2022-08-05T02:38:06.192Z,44.60
2022-08-05T02:40:41.735Z,44.70
2022-08-05T02:43:12.909Z,45.00
2022-08-05T02:45:52.519Z,45.10
2022-08-05T02:48:29.159Z,45.20
2022-08-05T02:51:00.357Z,45.40
2022-08-05T02:53:39.206Z,45.50
2022-08-05T02:56:15.740Z,45.80
2022-08-05T02:58:51.485Z,45.80
2022-08-05T03:01:25.028Z,45.80
2022-08-05T03:04:03.113Z,46.10
2022-08-05T03:06:54.539Z,46.20
2022-08-05T03:09:36.332Z,46.30
2022-08-05T03:12:06.704Z,46.40
2022-08-05T03:14:40.907Z,47.20
2022-08-05T03:17:13.033Z,46.80
2022-08-05T03:19:40.031Z,46.90
2022-08-05T03:22:16.579Z,47.10
2022-08-05T03:24:51.125Z,47.30
2022-08-05T03:27:20.738Z,47.40
2022-08-05T03:30:07.222Z,47.50
2022-08-05T03:32:36.541Z,47.60
2022-08-05T03:35:04.425Z,47.60
2022-08-05T03:37:45.847Z,47.80
2022-08-05T03:40:15.501Z,47.90
2022-08-05T03:42:52.909Z,48.00
2022-08-05T03:45:23.088Z,48.20
2022-08-05T03:47:51.578Z,48.10
2022-08-05T03:50:18.870Z,48.30
2022-08-05T03:55:34.391Z,48.20
2022-08-05T03:56:10.830Z,49.00
2022-08-05T03:58:45.681Z,48.80
2022-08-05T04:01:17.127Z,48.60
2022-08-05T04:04:09.524Z,48.70
2022-08-05T04:06:38.378Z,48.90
2022-08-05T04:09:15.983Z,48.80
2022-08-05T04:11:53.410Z,49.00
2022-08-05T04:14:29.950Z,49.00
2022-08-05T04:17:00.749Z,49.10
2022-08-05T04:19:30.070Z,49.20
2022-08-05T04:22:10.359Z,49.40
2022-08-05T04:24:52.899Z,49.20
2022-08-05T04:27:41.871Z,49.70
2022-08-05T04:30:09.469Z,49.40
2022-08-05T04:32:37.727Z,49.50
2022-08-05T04:35:07.320Z,49.50
2022-08-05T04:38:02.346Z,49.50
2022-08-05T04:40:44.469Z,49.50
2022-08-05T04:43:17.489Z,49.90
2022-08-05T04:45:54.851Z,49.70
2022-08-05T04:48:28.025Z,49.70
2022-08-05T04:51:03.263Z,49.80
2022-08-05T04:53:38.668Z,49.40
2022-08-05T04:56:33.192Z,49.70
2022-08-05T04:58:56.479Z,49.70
2022-08-05T05:02:05.709Z,49.80
2022-08-05T05:04:10.485Z,50.00
2022-08-05T05:06:44.521Z,50.10
2022-08-05T05:09:16.889Z,50.10
2022-08-05T05:11:53.202Z,50.20
2022-08-05T05:14:27.953Z,50.20
2022-08-05T05:17:00.651Z,50.30
2022-08-05T05:19:36.591Z,50.40
2022-08-05T05:22:23.427Z,50.40
2022-08-05T05:24:58.147Z,50.40
2022-08-05T05:27:41.745Z,50.40
2022-08-05T05:30:29.644Z,50.80
2022-08-05T05:33:03.458Z,50.50
2022-08-05T05:35:37.888Z,50.50
2022-08-05T05:38:09.397Z,50.50
2022-08-05T05:40:49.790Z,50.70
2022-08-05T05:43:56.500Z,50.70
2022-08-05T05:46:17.258Z,50.50
2022-08-05T05:48:47.794Z,50.60
2022-08-05T05:51:25.965Z,50.90
2022-08-05T05:53:59.531Z,51.50
2022-08-05T05:56:34.457Z,50.70
2022-08-05T05:59:07.632Z,51.00
2022-08-05T06:01:40.803Z,51.30
2022-08-05T06:04:24.035Z,50.90
2022-08-05T06:06:50.885Z,50.80
2022-08-05T06:09:25.596Z,50.90
2022-08-05T06:12:03.309Z,51.10
2022-08-05T06:14:31.627Z,51.10
2022-08-05T06:16:59.402Z,51.20
2022-08-05T06:19:34.469Z,51.20
2022-08-05T06:22:07.265Z,51.30
2022-08-05T06:24:48.171Z,51.50
2022-08-05T06:27:17.186Z,51.20
2022-08-05T06:30:17.933Z,51.30
2022-08-05T06:32:48.459Z,51.80
2022-08-05T06:36:02.937Z,51.50
2022-08-05T06:38:11.493Z,51.40
2022-08-05T06:40:42.269Z,51.40
2022-08-05T06:43:59.786Z,51.70
2022-08-05T06:46:03.762Z,51.40
2022-08-05T06:48:53.608Z,51.90
2022-08-05T06:51:29.600Z,51.70
2022-08-05T06:53:59.941Z,52.00
2022-08-05T06:56:28.534Z,51.90
2022-08-05T06:58:55.880Z,51.80
2022-08-05T07:01:23.449Z,51.90
2022-08-05T07:03:55.677Z,53.80
2022-08-05T07:06:23.259Z,51.70
2022-08-05T07:08:51.918Z,51.70
2022-08-05T07:11:22.513Z,51.50
2022-08-05T07:14:20.518Z,51.50
2022-08-05T07:18:01.238Z,51.50
2022-08-05T07:20:31.388Z,51.20
2022-08-05T07:22:35.202Z,51.10
2022-08-05T07:25:54.345Z,51.20
2022-08-05T07:27:57.197Z,51.20
2022-08-05T07:30:39.049Z,51.40
2022-08-05T07:33:16.226Z,51.40
2022-08-05T07:36:01.748Z,51.30
2022-08-05T07:38:42.932Z,51.20
2022-08-05T07:42:08.710Z,51.30
2022-08-05T07:44:14.258Z,51.10
2022-08-05T07:46:48.201Z,51.00
2022-08-05T07:49:18.294Z,50.90
2022-08-05T07:51:53.373Z,51.40
2022-08-05T07:54:31.767Z,50.70
2022-08-05T07:57:41.711Z,50.50
2022-08-05T07:59:49.746Z,50.40
2022-08-05T08:02:17.923Z,50.30
2022-08-05T08:04:49.433Z,50.20
2022-08-05T08:07:22.690Z,50.30
2022-08-05T08:09:53.107Z,50.20
2022-08-05T08:12:35.486Z,50.30
2022-08-05T08:15:09.709Z,51.10
2022-08-05T08:17:46.261Z,50.50
2022-08-05T08:20:44.657Z,50.60
2022-08-05T08:23:04.658Z,50.70
2022-08-05T08:25:59.945Z,50.70
2022-08-05T08:28:36.445Z,50.80
2022-08-05T08:31:08.085Z,50.80
2022-08-05T08:33:36.052Z,51.00
2022-08-05T08:36:38.939Z,51.00
2022-08-05T08:38:55.459Z,51.00
2022-08-05T08:41:26.212Z,50.90
2022-08-05T08:45:19.740Z,50.90
2022-08-05T08:47:21.935Z,50.80
2022-08-05T08:50:06.160Z,50.70
2022-08-05T08:52:53.720Z,50.70
2022-08-05T08:56:02.703Z,50.70
2022-08-05T08:58:13.048Z,50.50
2022-08-05T09:00:42.665Z,50.70
2022-08-05T09:03:11.655Z,50.60
2022-08-05T09:06:07.729Z,50.70
2022-08-05T09:08:30.100Z,50.70
2022-08-05T09:10:58.267Z,50.90
2022-08-05T09:13:31.829Z,50.90
2022-08-05T09:16:16.792Z,51.00
2022-08-05T09:18:44.483Z,51.10
2022-08-05T09:21:21.089Z,51.20
2022-08-05T09:24:10.323Z,51.40
2022-08-05T09:26:37.418Z,51.80
2022-08-05T09:29:08.827Z,51.70
2022-08-05T09:32:42.298Z,52.10
2022-08-05T09:34:22.895Z,51.70
2022-08-05T09:36:55.923Z,51.70
2022-08-05T09:39:39.100Z,51.80
2022-08-05T09:42:24.523Z,51.80
2022-08-05T09:44:57.498Z,51.90
2022-08-05T09:47:36.425Z,52.00
2022-08-05T09:50:38.134Z,51.80
2022-08-05T09:53:09.136Z,52.00
2022-08-05T09:55:58.277Z,51.70
2022-08-05T09:58:29.232Z,51.50
2022-08-05T10:01:14.649Z,51.40
2022-08-05T10:04:10.342Z,51.40
2022-08-05T10:06:40.639Z,51.60
2022-08-05T10:09:27.349Z,51.40
2022-08-05T10:11:56.231Z,51.70
2022-08-05T10:14:32.208Z,51.70
2022-08-05T10:17:37.430Z,52.00
2022-08-05T10:20:09.903Z,52.10
2022-08-05T10:22:42.899Z,51.90
2022-08-05T10:25:15.974Z,52.10
2022-08-05T10:28:12.845Z,52.20
2022-08-05T10:32:03.042Z,52.50
2022-08-05T10:33:18.042Z,52.70
2022-08-05T10:35:58.989Z,52.50
2022-08-05T10:38:29.743Z,52.60
2022-08-05T10:41:23.193Z,52.80
2022-08-05T10:44:11.312Z,53.00
2022-08-05T10:46:54.705Z,53.00
2022-08-05T10:49:27.501Z,53.30
2022-08-05T10:52:03.225Z,53.00
2022-08-05T10:55:04.583Z,53.20
2022-08-05T10:57:34.021Z,54.50
2022-08-05T11:00:23.109Z,53.60
2022-08-05T11:03:23.410Z,53.90
2022-08-05T11:06:16.134Z,54.10
2022-08-05T11:09:24.397Z,54.20
2022-08-05T11:12:27.426Z,53.80
2022-08-05T11:15:20.502Z,53.20
2022-08-05T11:17:57.922Z,53.20
2022-08-05T11:20:44.022Z,52.90
2022-08-05T11:23:33.422Z,52.50
2022-08-05T11:26:32.448Z,52.80
2022-08-05T11:29:12.729Z,52.20
2022-08-05T11:31:53.931Z,51.90
2022-08-05T11:34:51.051Z,51.70
2022-08-05T11:38:30.196Z,51.60
2022-08-05T11:41:34.416Z,51.30
2022-08-05T11:44:04.969Z,51.20
2022-08-05T11:47:09.270Z,51.10
2022-08-05T11:49:33.824Z,51.10
2022-08-05T11:52:01.765Z,50.90
2022-08-05T11:54:40.624Z,51.00
2022-08-05T11:57:26.081Z,50.80
2022-08-05T11:59:55.146Z,50.80
2022-08-05T12:02:31.167Z,50.60
2022-08-05T12:05:07.453Z,50.60
2022-08-05T12:08:08.028Z,50.60
2022-08-05T12:10:42.997Z,50.60
2022-08-05T12:13:18.759Z,50.80
2022-08-05T12:16:18.209Z,50.80
2022-08-05T12:18:49.318Z,50.80
2022-08-05T12:21:39.054Z,50.70
2022-08-05T12:24:17.360Z,50.90
2022-08-05T12:26:53.541Z,50.80
2022-08-05T12:29:29.186Z,50.70
2022-08-05T12:32:07.449Z,50.60
2022-08-05T12:34:38.437Z,50.50
2022-08-05T12:37:17.450Z,50.40
2022-08-05T12:39:54.016Z,50.30
2022-08-05T12:42:25.306Z,50.20
2022-08-05T12:44:52.498Z,50.10
2022-08-05T12:47:32.952Z,49.90
2022-08-05T12:50:13.171Z,49.70
2022-08-05T12:52:42.357Z,49.60
2022-08-05T12:55:26.355Z,49.40
2022-08-05T12:58:38.632Z,49.20
2022-08-05T13:01:59.857Z,49.10
2022-08-05T13:03:42.127Z,49.20
2022-08-05T13:06:16.801Z,49.00
2022-08-05T13:08:50.921Z,48.90
2022-08-05T13:12:03.114Z,48.90
2022-08-05T13:14:25.081Z,48.80
2022-08-05T13:17:08.663Z,48.90
2022-08-05T13:19:51.916Z,48.90
2022-08-05T13:22:27.715Z,48.60
2022-08-05T13:25:00.346Z,48.50
2022-08-05T13:27:37.510Z,48.20
2022-08-05T13:30:34.787Z,48.00
2022-08-05T13:32:56.634Z,48.00
2022-08-05T13:35:31.444Z,47.80
2022-08-05T13:38:20.275Z,47.70
2022-08-05T13:40:57.357Z,47.50
2022-08-05T13:43:24.250Z,47.50
2022-08-05T13:46:11.853Z,47.30
2022-08-05T13:48:58.295Z,47.10
2022-08-05T13:51:36.666Z,46.90
2022-08-05T13:54:15.283Z,46.50
2022-08-05T13:56:50.410Z,46.70
2022-08-05T13:59:21.432Z,46.80
2022-08-05T14:01:56.564Z,46.90
2022-08-05T14:04:51.330Z,47.00
2022-08-05T14:08:00.419Z,46.90
2022-08-05T14:10:29.022Z,46.90
2022-08-05T14:12:59.663Z,46.90
2022-08-05T14:16:06.853Z,47.10
2022-08-05T14:18:18.584Z,47.10
2022-08-05T14:20:54.931Z,46.90
2022-08-05T14:23:25.583Z,46.80
2022-08-05T14:25:58.146Z,46.90
2022-08-05T14:28:28.589Z,46.90
2022-08-05T14:30:57.812Z,46.90
2022-08-05T14:33:24.663Z,46.90
2022-08-05T14:35:54.040Z,46.80
2022-08-05T14:38:32.816Z,46.80
2022-08-05T14:41:07.784Z,47.00
2022-08-05T14:43:59.342Z,47.10
2022-08-05T14:46:28.801Z,47.20
2022-08-05T14:48:59.041Z,47.30
2022-08-05T14:51:31.087Z,47.20
2022-08-05T14:54:27.094Z,47.30
2022-08-05T14:56:48.660Z,47.50
2022-08-05T14:59:18.331Z,47.60
2022-08-05T15:01:49.946Z,47.70
2022-08-05T15:04:20.281Z,47.70
2022-08-05T15:06:49.258Z,47.80
2022-08-05T15:09:52.223Z,47.80
2022-08-05T15:12:09.441Z,47.90
2022-08-05T15:14:42.193Z,48.00
2022-08-05T15:17:46.685Z,48.10
2022-08-05T15:20:04.508Z,48.20
2022-08-05T15:22:31.675Z,48.30
2022-08-05T15:24:59.281Z,48.50
2022-08-05T15:27:35.919Z,48.70
2022-08-05T15:30:04.674Z,48.80
2022-08-05T15:32:31.744Z,48.90
2022-08-05T15:34:58.643Z,49.10
2022-08-05T15:38:32.717Z,49.30
2022-08-05T15:41:00.573Z,49.50
2022-08-05T15:43:11.176Z,49.70
2022-08-05T15:45:47.577Z,49.80
2022-08-05T15:48:15.286Z,50.10
2022-08-05T15:50:43.753Z,50.30
2022-08-05T15:53:13.342Z,50.30
2022-08-05T15:56:02.299Z,50.60
2022-08-05T15:58:29.409Z,50.80
2022-08-05T16:01:15.799Z,51.10
2022-08-05T16:03:50.266Z,51.30
2022-08-05T16:06:20.345Z,51.70
2022-08-05T16:08:50.255Z,51.90
2022-08-05T16:11:18.424Z,52.00
2022-08-05T16:13:48.392Z,52.10
2022-08-05T16:16:21.209Z,52.30
2022-08-05T16:18:52.686Z,52.50
2022-08-05T16:21:20.808Z,52.80
2022-08-05T16:24:35.830Z,52.80
2022-08-05T16:27:00.338Z,53.10
2022-08-05T16:29:31.241Z,53.20
2022-08-05T16:32:06.646Z,53.10
2022-08-05T16:34:39.278Z,53.60
2022-08-05T16:38:02.813Z,53.20
2022-08-05T16:40:05.241Z,53.30
2022-08-05T16:42:34.559Z,53.40
2022-08-05T16:45:02.259Z,53.50
2022-08-05T16:47:54.079Z,53.60
2022-08-05T16:50:24.678Z,53.60
2022-08-05T16:52:51.426Z,54.00
2022-08-05T16:55:19.791Z,54.00
2022-08-05T16:58:00.021Z,54.20
2022-08-05T17:00:34.706Z,54.60
2022-08-05T17:03:03.787Z,54.30
2022-08-05T17:05:37.045Z,54.50
2022-08-05T17:08:04.728Z,54.80
2022-08-05T17:10:31.694Z,55.00
2022-08-05T17:12:58.514Z,55.20
2022-08-05T17:15:44.746Z,55.40
2022-08-05T17:18:14.102Z,55.10
2022-08-05T17:20:42.216Z,55.30
2022-08-05T17:24:02.911Z,55.20
2022-08-05T17:25:57.900Z,55.40
2022-08-05T17:28:24.816Z,55.40
2022-08-05T17:30:55.682Z,55.40
2022-08-05T17:33:23.576Z,55.60
2022-08-05T17:36:08.396Z,55.50
2022-08-05T17:38:37.827Z,55.90
2022-08-05T17:41:23.008Z,55.80
2022-08-05T17:43:54.923Z,55.90
2022-08-05T17:46:23.657Z,55.90
2022-08-05T17:48:50.641Z,55.80
2022-08-05T17:51:21.931Z,55.80
2022-08-05T17:53:54.679Z,56.00
2022-08-05T17:56:22.635Z,56.10
2022-08-05T17:58:49.882Z,55.80
2022-08-05T18:01:19.258Z,56.00
2022-08-05T18:03:57.814Z,56.00
2022-08-05T18:06:31.847Z,56.00
2022-08-05T18:08:59.338Z,56.20
2022-08-05T18:11:32.952Z,56.50
2022-08-05T18:14:07.284Z,56.40
2022-08-05T18:16:51.104Z,56.70
2022-08-05T18:19:22.911Z,57.30
2022-08-05T18:22:09.060Z,56.50
2022-08-05T18:24:37.977Z,57.10
2022-08-05T18:27:12.532Z,56.80
2022-08-05T18:29:52.034Z,57.10
2022-08-05T18:32:21.551Z,57.40
2022-08-05T18:34:56.662Z,57.20
2022-08-05T18:37:34.399Z,57.30
2022-08-05T18:41:03.329Z,57.20
2022-08-05T18:42:56.526Z,57.20
2022-08-05T18:45:24.027Z,57.70
2022-08-05T18:47:56.503Z,57.70
2022-08-05T18:50:46.486Z,57.70
2022-08-05T18:53:19.197Z,57.90
2022-08-05T18:55:49.552Z,57.80
2022-08-05T18:58:16.598Z,58.00
2022-08-05T19:00:43.486Z,58.10
2022-08-05T19:03:15.074Z,57.80
2022-08-05T19:06:11.482Z,58.10
2022-08-05T19:08:30.843Z,58.00
2022-08-05T19:10:59.420Z,57.90
2022-08-05T19:13:29.696Z,57.70
2022-08-05T19:16:04.073Z,57.50
2022-08-05T19:18:31.817Z,57.30
2022-08-05T19:20:59.671Z,57.20
2022-08-05T19:24:05.376Z,57.00
2022-08-05T19:26:14.625Z,56.90
2022-08-05T19:28:43.585Z,56.90
2022-08-05T19:31:13.030Z,56.80
2022-08-05T19:33:48.285Z,56.70
2022-08-05T19:36:25.491Z,56.50
2022-08-05T19:38:55.336Z,56.50
2022-08-05T19:41:34.675Z,56.40
2022-08-05T19:44:15.727Z,56.30
2022-08-05T19:46:43.738Z,56.20
2022-08-05T19:49:16.526Z,56.00
2022-08-05T19:52:09.306Z,55.90
2022-08-05T19:54:32.953Z,55.80
2022-08-05T19:57:09.175Z,55.70
2022-08-05T19:59:55.247Z,55.60
2022-08-05T20:02:27.928Z,55.60
2022-08-05T20:04:58.876Z,55.40
2022-08-05T20:07:46.647Z,55.30
2022-08-05T20:10:15.441Z,55.20
2022-08-05T20:12:47.625Z,55.10
2022-08-05T20:15:23.399Z,55.20
2022-08-05T20:18:10.616Z,55.10
2022-08-05T20:20:55.068Z,55.10
2022-08-05T20:23:22.837Z,55.20
2022-08-05T20:25:52.290Z,55.00
2022-08-05T20:28:20.949Z,55.00
2022-08-05T20:30:49.362Z,55.10
2022-08-05T20:33:16.412Z,55.10
2022-08-05T20:35:45.682Z,55.10
2022-08-05T20:38:22.765Z,55.20
2022-08-05T20:40:55.495Z,55.30
2022-08-05T20:43:58.272Z,55.20
2022-08-05T20:46:18.517Z,55.90
2022-08-05T20:48:51.747Z,55.50
2022-08-05T20:51:18.557Z,55.60
2022-08-05T20:53:56.408Z,55.80
2022-08-05T20:56:28.720Z,55.60
2022-08-05T20:58:59.961Z,55.60
2022-08-05T21:01:41.510Z,55.80
2022-08-05T21:04:10.725Z,55.80
2022-08-05T21:06:45.179Z,55.90
2022-08-05T21:09:15.005Z,55.90
2022-08-05T21:12:08.913Z,56.00
2022-08-05T21:14:35.329Z,56.10
2022-08-05T21:17:05.317Z,56.10
2022-08-05T21:19:47.354Z,56.40
2022-08-05T21:22:23.167Z,56.40
2022-08-05T21:24:52.544Z,56.60
2022-08-05T21:27:25.296Z,56.70
2022-08-05T21:29:56.280Z,56.70
2022-08-05T21:32:27.225Z,56.80
2022-08-05T21:35:17.768Z,57.00
2022-08-05T21:37:53.090Z,57.20
2022-08-05T21:40:24.669Z,57.20
2022-08-05T21:42:53.520Z,57.40
2022-08-05T21:45:24.556Z,57.70
2022-08-05T21:47:57.642Z,57.40
2022-08-05T21:50:26.521Z,57.80
2022-08-05T21:52:58.904Z,57.80
2022-08-05T21:55:42.932Z,57.80
2022-08-05T21:58:19.446Z,57.70
2022-08-05T22:00:51.312Z,58.00
2022-08-05T22:03:18.597Z,57.90
2022-08-05T22:06:06.294Z,58.20
2022-08-05T22:08:35.317Z,58.30
2022-08-05T22:11:02.163Z,58.30
2022-08-05T22:14:06.507Z,58.30
2022-08-05T22:16:41.396Z,58.30
2022-08-05T22:19:15.162Z,58.50
2022-08-05T22:21:54.137Z,58.50
2022-08-05T22:24:52.347Z,58.90
2022-08-05T22:28:09.619Z,58.60
2022-08-05T22:30:35.193Z,59.10
2022-08-05T22:33:15.490Z,58.80
2022-08-05T22:35:48.685Z,59.00
2022-08-05T22:38:16.991Z,59.00
2022-08-05T22:40:49.885Z,59.00
2022-08-05T22:43:36.782Z,59.10
2022-08-05T22:46:12.046Z,59.20
2022-08-05T22:48:43.287Z,59.30
2022-08-05T22:51:16.044Z,59.30
2022-08-05T22:53:51.217Z,59.30
2022-08-05T22:56:29.693Z,59.90
2022-08-05T22:58:57.111Z,59.90
2022-08-05T23:01:24.110Z,59.60
2022-08-05T23:04:10.906Z,59.70
2022-08-05T23:06:37.909Z,59.80
2022-08-05T23:09:26.878Z,59.50
2022-08-05T23:11:51.861Z,59.60
2022-08-05T23:14:22.675Z,59.70
2022-08-05T23:17:18.711Z,59.70
2022-08-05T23:19:56.309Z,59.70
2022-08-05T23:22:27.565Z,59.80
2022-08-05T23:24:54.979Z,59.60
2022-08-05T23:27:22.765Z,59.70
2022-08-05T23:29:51.142Z,59.60
2022-08-05T23:32:22.848Z,59.40
2022-08-05T23:34:50.865Z,59.50
2022-08-05T23:37:18.403Z,59.40
2022-08-05T23:39:54.485Z,59.50
2022-08-05T23:42:29.348Z,59.30
2022-08-05T23:44:57.112Z,59.30
2022-08-05T23:47:24.840Z,59.30
2022-08-05T23:49:55.678Z,59.20
2022-08-05T23:52:28.376Z,59.20
2022-08-05T23:55:05.254Z,59.10
2022-08-05T23:57:34.610Z,59.10
